Time;durP1;ratioP1;P1;durP2;ratioP2;P2;SDS_P1;SDS_P2;PMS_P1;PMS_P2;Temp;Humidity;BMP_temperature;BMP_pressure;BME280_temperature;BME280_humidity;BME280_pressure;Samples;Min_cycle;Max_cycle;Signal;HPM_P1;HPM_P2
2023/05/21 00:00:33;;;;;;;47.00;38.65;;;15.20;69.00;;;;;;4982830;28;115308;-78
2023/05/21 00:03:00;;;;;;;40.75;35.80;;;15.10;69.00;;;;;;4983311;28;114450;-77
2023/05/21 00:05:28;;;;;;;57.55;43.85;;;15.20;68.40;;;;;;4983705;28;114543;-77
2023/05/21 00:07:55;;;;;;;60.60;46.13;;;15.20;69.60;;;;;;4982384;28;114909;-78
2023/05/21 00:10:22;;;;;;;52.50;40.88;;;15.20;69.80;;;;;;4984257;28;114911;-78
2023/05/21 00:12:49;;;;;;;49.47;40.58;;;15.10;69.80;;;;;;4984026;28;114676;-79
2023/05/21 00:15:16;;;;;;;53.75;43.58;;;15.10;70.00;;;;;;4985143;28;114578;-78
2023/05/21 00:17:53;;;;;;;59.97;45.78;;;15.10;70.30;;;;;;4965635;28;115322;-78
2023/05/21 00:20:20;;;;;;;45.72;37.33;;;15.00;70.10;;;;;;4983928;28;116831;-78
2023/05/21 00:22:47;;;;;;;40.55;35.55;;;14.90;69.50;;;;;;4983702;28;114694;-78
2023/05/21 00:25:15;;;;;;;43.80;35.88;;;14.90;68.90;;;;;;4983745;28;114401;-78
2023/05/21 00:27:42;;;;;;;47.55;40.03;;;15.00;68.60;;;;;;4980927;28;115586;-77
2023/05/21 00:30:09;;;;;;;42.95;35.85;;;15.10;68.90;;;;;;4999255;28;115230;-77
2023/05/21 00:32:36;;;;;;;46.67;38.80;;;15.10;68.30;;;;;;4984061;28;114387;-77
2023/05/21 00:35:05;;;;;;;65.45;50.88;;;15.10;68.30;;;;;;4984290;28;114347;-78
2023/05/21 00:37:33;;;;;;;43.10;36.08;;;15.20;69.10;;;;;;4982533;28;116371;-78
2023/05/21 00:40:01;;;;;;;40.67;35.33;;;15.10;68.20;;;;;;4983850;28;115212;-78
2023/05/21 00:42:29;;;;;;;60.20;48.45;;;15.10;68.00;;;;;;4983467;28;114677;-77
2023/05/21 00:44:58;;;;;;;52.42;43.17;;;15.10;69.30;;;;;;4983560;28;114643;-77
2023/05/21 00:47:28;;;;;;;46.40;38.42;;;15.10;68.80;;;;;;4981983;28;115533;-78
2023/05/21 00:49:55;;;;;;;40.70;35.08;;;15.10;68.50;;;;;;4966373;28;116955;-77
2023/05/21 00:52:25;;;;;;;65.68;50.13;;;15.10;68.00;;;;;;4984839;28;114468;-79
2023/05/21 00:54:52;;;;;;;52.05;41.20;;;15.20;69.00;;;;;;4983704;28;114377;-79
2023/05/21 00:57:20;;;;;;;51.38;39.40;;;15.10;69.00;;;;;;4983966;28;114937;-79
2023/05/21 00:59:51;;;;;;;44.05;36.78;;;15.10;68.60;;;;;;4983524;28;114455;-78
2023/05/21 01:02:18;;;;;;;42.33;37.42;;;15.10;69.00;;;;;;4982912;28;114636;-78
2023/05/21 01:04:46;;;;;;;38.08;32.03;;;15.00;69.40;;;;;;4984665;28;114283;-78
2023/05/21 01:07:13;;;;;;;40.70;35.45;;;15.00;68.50;;;;;;4965129;28;115662;-78
2023/05/21 01:09:40;;;;;;;37.60;32.53;;;14.90;69.20;;;;;;4999058;28;115004;-78
2023/05/21 01:12:07;;;;;;;36.72;32.40;;;14.80;69.40;;;;;;4963932;28;114658;-78
2023/05/21 01:14:38;;;;;;;37.92;31.83;;;14.80;69.80;;;;;;4982976;28;114616;-78
2023/05/21 01:17:09;;;;;;;36.40;31.27;;;14.70;69.50;;;;;;4963302;28;115204;-78
2023/05/21 01:19:36;;;;;;;46.55;38.78;;;14.70;69.10;;;;;;4983243;28;115176;-79
2023/05/21 01:22:05;;;;;;;35.38;31.55;;;14.80;69.60;;;;;;4982265;28;114524;-79
2023/05/21 01:24:33;;;;;;;39.22;33.75;;;14.80;68.80;;;;;;4999354;28;114545;-77
2023/05/21 01:27:02;;;;;;;37.95;33.35;;;14.80;69.00;;;;;;4964319;28;115200;-80
2023/05/21 01:29:29;;;;;;;37.70;32.30;;;14.90;68.40;;;;;;4981807;28;115592;-78
2023/05/21 01:32:15;;;;;;;36.08;32.17;;;14.90;68.50;;;;;;4999061;28;114748;-79
2023/05/21 01:35:05;;;;;;;36.40;31.27;;;14.90;68.20;;;;;;4999291;28;114770;-78
2023/05/21 01:37:46;;;;;;;37.30;32.60;;;15.00;68.10;;;;;;4982088;28;117391;-78
2023/05/21 01:40:24;;;;;;;35.63;30.70;;;14.90;68.20;;;;;;4981969;28;114652;-78
2023/05/21 01:42:52;;;;;;;37.63;33.50;;;15.00;68.00;;;;;;4983627;28;114505;-79
2023/05/21 01:45:19;;;;;;;38.80;32.72;;;14.90;68.20;;;;;;4983524;28;114500;-78
2023/05/21 01:47:48;;;;;;;47.35;37.50;;;14.90;68.00;;;;;;4980994;28;115073;-78
2023/05/21 01:50:15;;;;;;;38.70;34.47;;;14.80;68.20;;;;;;4964896;28;114733;-78
2023/05/21 01:52:51;;;;;;;33.70;30.05;;;14.80;68.00;;;;;;4982284;28;114774;-77
2023/05/21 01:55:23;;;;;;;35.38;31.05;;;14.90;67.60;;;;;;4998934;28;114413;-78
2023/05/21 01:57:52;;;;;;;37.33;31.58;;;14.80;67.70;;;;;;4977856;28;114741;-77
2023/05/21 02:00:23;;;;;;;34.05;29.33;;;14.80;67.70;;;;;;4965129;28;114623;-78
2023/05/21 02:02:50;;;;;;;37.78;32.58;;;14.90;67.60;;;;;;4982980;28;114451;-77
2023/05/21 02:05:18;;;;;;;35.28;31.42;;;14.80;67.60;;;;;;4983584;28;114346;-77
2023/05/21 02:07:46;;;;;;;40.50;34.20;;;14.80;67.60;;;;;;4981052;28;114851;-77
2023/05/21 02:10:14;;;;;;;39.50;33.70;;;14.90;67.70;;;;;;4997450;28;114696;-78
2023/05/21 02:12:42;;;;;;;32.53;28.98;;;14.90;67.90;;;;;;4983131;28;114233;-78
2023/05/21 02:15:09;;;;;;;39.10;32.15;;;14.80;67.60;;;;;;4983600;28;114461;-78
2023/05/21 02:17:37;;;;;;;34.80;31.05;;;14.80;67.60;;;;;;4982731;28;115167;-78
2023/05/21 02:20:12;;;;;;;34.55;29.35;;;14.80;67.60;;;;;;4981876;28;114628;-77
2023/05/21 02:22:44;;;;;;;33.78;29.73;;;14.80;67.50;;;;;;4983635;28;114372;-78
2023/05/21 02:25:13;;;;;;;35.15;30.52;;;14.90;67.50;;;;;;4983916;28;115498;-78
2023/05/21 02:27:41;;;;;;;33.25;28.63;;;14.80;67.50;;;;;;4981652;28;114996;-78
2023/05/21 02:30:09;;;;;;;33.47;29.85;;;14.80;67.40;;;;;;4983076;28;114939;-78
2023/05/21 02:32:38;;;;;;;32.58;28.70;;;14.80;67.50;;;;;;4999624;28;114514;-78
2023/05/21 02:35:06;;;;;;;33.50;28.73;;;14.90;67.30;;;;;;4983110;28;114540;-78
2023/05/21 02:37:34;;;;;;;33.80;27.98;;;14.80;67.30;;;;;;4980801;28;115326;-77
2023/05/21 02:40:03;;;;;;;33.25;29.65;;;14.80;67.40;;;;;;4997745;28;114828;-78
2023/05/21 02:42:30;;;;;;;29.98;26.80;;;14.80;67.80;;;;;;4982139;28;114628;-78
2023/05/21 02:44:57;;;;;;;28.83;25.80;;;14.80;67.30;;;;;;4983250;28;114460;-78
2023/05/21 02:47:25;;;;;;;30.92;27.33;;;14.80;67.70;;;;;;4978772;28;115446;-78
2023/05/21 02:49:53;;;;;;;29.77;26.67;;;14.70;67.90;;;;;;4960946;28;114585;-77
2023/05/21 02:52:23;;;;;;;30.75;25.88;;;14.70;67.90;;;;;;4978019;28;114605;-78
2023/05/21 02:54:51;;;;;;;29.20;26.10;;;14.60;67.90;;;;;;4981969;28;114893;-77
2023/05/21 02:57:18;;;;;;;29.10;25.88;;;14.60;68.00;;;;;;4984550;28;114859;-77
2023/05/21 02:59:45;;;;;;;28.65;25.63;;;14.60;68.00;;;;;;4984594;28;116463;-78
2023/05/21 03:02:12;;;;;;;29.75;26.50;;;14.60;68.00;;;;;;4985108;28;114415;-78
2023/05/21 03:04:45;;;;;;;30.13;25.75;;;14.50;68.00;;;;;;4984592;28;114551;-78
2023/05/21 03:07:13;;;;;;;29.40;26.30;;;14.60;68.00;;;;;;4985225;28;115067;-78
2023/05/21 03:09:41;;;;;;;28.38;25.08;;;14.60;67.90;;;;;;4967022;28;115554;-77
2023/05/21 03:12:08;;;;;;;28.30;25.15;;;14.60;67.90;;;;;;4985974;28;114363;-79
2023/05/21 03:14:36;;;;;;;29.15;25.02;;;14.70;68.00;;;;;;5001391;28;114578;-78
2023/05/21 03:17:04;;;;;;;28.23;25.25;;;14.70;67.80;;;;;;5000211;28;115151;-78
2023/05/21 03:19:35;;;;;;;29.00;25.40;;;14.70;67.80;;;;;;4985427;28;114678;-78
2023/05/21 03:22:04;;;;;;;28.77;25.83;;;14.70;67.80;;;;;;4968394;28;114592;-78
2023/05/21 03:24:35;;;;;;;27.58;24.58;;;14.80;67.70;;;;;;4984811;28;114430;-76
2023/05/21 03:27:08;;;;;;;28.73;24.92;;;14.90;67.50;;;;;;4983000;28;116105;-77
2023/05/21 03:29:35;;;;;;;28.95;25.58;;;15.00;67.30;;;;;;4983381;28;114976;-77
2023/05/21 03:32:03;;;;;;;29.00;24.98;;;15.10;67.10;;;;;;4984502;28;114706;-77
2023/05/21 03:34:33;;;;;;;26.73;23.90;;;15.20;66.70;;;;;;4967793;28;114439;-77
2023/05/21 03:37:01;;;;;;;27.27;24.38;;;15.30;66.30;;;;;;4983286;28;117207;-76
2023/05/21 03:39:29;;;;;;;28.85;24.48;;;15.50;66.10;;;;;;4983596;28;114592;-77
2023/05/21 03:41:57;;;;;;;27.48;24.55;;;15.60;65.60;;;;;;4984288;28;114597;-77
2023/05/21 03:44:34;;;;;;;27.98;24.50;;;15.80;65.30;;;;;;4984741;28;114766;-77
2023/05/21 03:47:30;;;;;;;28.00;25.00;;;15.90;65.10;;;;;;4979590;28;115610;-77
2023/05/21 03:50:01;;;;;;;27.17;24.38;;;16.00;65.00;;;;;;4983005;28;114927;-78
2023/05/21 03:52:30;;;;;;;24.73;22.15;;;16.10;64.60;;;;;;4983468;28;114477;-78
2023/05/21 03:54:58;;;;;;;26.05;23.27;;;16.20;64.30;;;;;;4984608;28;114528;-77
2023/05/21 03:57:25;;;;;;;25.70;22.95;;;16.20;64.10;;;;;;4999877;28;114953;-77
2023/05/21 03:59:52;;;;;;;27.13;23.08;;;16.30;63.80;;;;;;4983037;28;114843;-78
2023/05/21 04:02:20;;;;;;;31.33;23.83;;;16.40;63.70;;;;;;5000798;28;114716;-77
2023/05/21 04:04:50;;;;;;;26.00;23.20;;;16.50;63.50;;;;;;4985356;28;114354;-77
2023/05/21 04:07:18;;;;;;;25.25;22.38;;;16.60;63.30;;;;;;4997995;28;115160;-77
2023/05/21 04:09:46;;;;;;;27.33;21.85;;;16.60;63.30;;;;;;4983469;28;116693;-77
2023/05/21 04:12:17;;;;;;;27.17;22.38;;;16.70;62.80;;;;;;4984037;28;114228;-78
2023/05/21 04:14:46;;;;;;;25.08;22.20;;;16.70;62.70;;;;;;4983676;28;114683;-77
2023/05/21 04:17:13;;;;;;;24.38;20.65;;;16.80;62.70;;;;;;4982193;28;117099;-78
2023/05/21 04:19:40;;;;;;;23.00;19.60;;;16.90;62.20;;;;;;4982367;28;115320;-78
2023/05/21 04:22:09;;;;;;;21.27;18.95;;;16.90;62.10;;;;;;4999610;28;114442;-78
2023/05/21 04:24:36;;;;;;;23.08;19.17;;;16.90;62.00;;;;;;4965280;28;114657;-79
2023/05/21 04:27:15;;;;;;;19.30;17.27;;;16.90;62.10;;;;;;4979607;28;115058;-79
2023/05/21 04:29:43;;;;;;;19.02;17.02;;;16.90;62.00;;;;;;4982137;28;114742;-78
2023/05/21 04:32:10;;;;;;;20.25;17.85;;;16.80;62.10;;;;;;4997215;28;114419;-78
2023/05/21 04:34:39;;;;;;;20.83;17.42;;;16.80;62.80;;;;;;4983557;28;115080;-79
2023/05/21 04:37:06;;;;;;;19.60;16.65;;;16.80;62.60;;;;;;4998606;28;114848;-78
2023/05/21 04:39:33;;;;;;;22.15;17.65;;;16.80;62.50;;;;;;4980035;28;117205;-78
2023/05/21 04:42:02;;;;;;;19.33;16.02;;;17.00;62.40;;;;;;4982677;28;114641;-79
2023/05/21 04:44:30;;;;;;;19.10;15.98;;;17.20;62.30;;;;;;4982860;28;114556;-80
2023/05/21 04:46:59;;;;;;;19.02;17.02;;;17.30;62.00;;;;;;4965055;28;115607;-79
2023/05/21 04:49:26;;;;;;;19.70;17.70;;;17.30;62.00;;;;;;4983490;28;114802;-79
2023/05/21 04:51:53;;;;;;;21.20;18.25;;;17.50;61.80;;;;;;4982402;28;114402;-78
2023/05/21 04:54:21;;;;;;;19.42;16.45;;;17.70;61.40;;;;;;4982575;28;114827;-79
2023/05/21 04:56:49;;;;;;;18.17;16.23;;;17.80;61.00;;;;;;4997819;28;116348;-79
2023/05/21 04:59:17;;;;;;;22.35;18.73;;;17.90;60.80;;;;;;4997636;28;116076;-79
2023/05/21 05:01:45;;;;;;;18.52;16.58;;;18.10;60.50;;;;;;5003051;28;114272;-78
2023/05/21 05:04:12;;;;;;;20.98;18.38;;;18.20;60.30;;;;;;4988150;28;114912;-78
2023/05/21 05:06:39;;;;;;;20.85;18.10;;;18.30;60.00;;;;;;4996854;28;115209;-79
2023/05/21 05:09:07;;;;;;;19.60;16.77;;;18.40;59.80;;;;;;4982454;28;115701;-79
2023/05/21 05:11:34;;;;;;;20.27;17.90;;;18.50;59.90;;;;;;4966232;28;114498;-78
2023/05/21 05:14:03;;;;;;;20.48;17.17;;;18.70;59.50;;;;;;4998424;28;117633;-78
2023/05/21 05:16:30;;;;;;;19.00;17.00;;;18.80;59.40;;;;;;4981145;28;114959;-78
2023/05/21 05:18:57;;;;;;;21.50;17.90;;;18.90;58.90;;;;;;4964037;28;115161;-79
2023/05/21 05:21:27;;;;;;;20.35;17.42;;;19.10;58.70;;;;;;4982135;28;114522;-79
2023/05/21 05:23:55;;;;;;;19.10;17.20;;;19.20;58.50;;;;;;4964854;28;114600;-79
2023/05/21 05:26:27;;;;;;;18.50;15.02;;;19.30;58.50;;;;;;4981061;28;117061;-79
2023/05/21 05:28:55;;;;;;;19.35;15.45;;;19.50;58.00;;;;;;4991811;28;118405;-79
2023/05/21 05:31:23;;;;;;;17.77;15.65;;;19.60;57.90;;;;;;4978131;28;116142;-79
2023/05/21 05:33:51;;;;;;;15.80;14.15;;;19.80;57.80;;;;;;4996791;28;114532;-78
2023/05/21 05:36:21;;;;;;;17.50;15.70;;;19.80;57.50;;;;;;4994956;28;119598;-79
2023/05/21 05:38:48;;;;;;;17.77;15.57;;;20.00;57.20;;;;;;4978485;28;114623;-78
2023/05/21 05:41:16;;;;;;;17.95;14.80;;;20.20;57.20;;;;;;4963787;28;114667;-78
2023/05/21 05:43:43;;;;;;;18.63;16.27;;;20.30;56.90;;;;;;4979063;28;114661;-78
2023/05/21 05:46:10;;;;;;;20.63;17.27;;;20.40;56.40;;;;;;4996218;28;115532;-78
2023/05/21 05:48:38;;;;;;;18.75;16.70;;;20.50;56.00;;;;;;4963649;28;118896;-79
2023/05/21 05:51:05;;;;;;;19.10;17.10;;;20.60;56.10;;;;;;4977222;28;114627;-78
2023/05/21 05:53:33;;;;;;;18.27;16.35;;;20.80;55.70;;;;;;4975090;28;114571;-79
2023/05/21 05:56:01;;;;;;;20.85;15.65;;;20.80;55.40;;;;;;4996613;28;115816;-78
2023/05/21 05:58:30;;;;;;;17.95;15.77;;;20.90;55.50;;;;;;4981852;28;114862;-78
2023/05/21 06:01:10;;;;;;;16.42;14.68;;;21.10;55.20;;;;;;4981943;28;114538;-79
2023/05/21 06:03:38;;;;;;;16.30;14.43;;;21.20;54.90;;;;;;4998362;28;114860;-78
2023/05/21 06:06:14;;;;;;;16.10;13.40;;;21.30;54.80;;;;;;4997317;28;114971;-79
2023/05/21 06:08:41;;;;;;;15.48;13.88;;;21.30;54.20;;;;;;4980038;28;114724;-78
2023/05/21 06:11:09;;;;;;;13.55;12.15;;;21.50;53.70;;;;;;4963049;28;114676;-78
2023/05/21 06:13:36;;;;;;;13.77;12.25;;;21.50;53.10;;;;;;4981319;28;114626;-77
2023/05/21 06:16:05;;;;;;;13.35;12.00;;;21.50;53.00;;;;;;4975698;28;114866;-80
2023/05/21 06:18:33;;;;;;;15.57;13.07;;;21.60;53.00;;;;;;4964600;28;114715;-76
2023/05/21 06:21:00;;;;;;;15.18;13.55;;;21.80;52.40;;;;;;4980752;28;114444;-78
2023/05/21 06:23:31;;;;;;;13.57;12.15;;;21.80;52.20;;;;;;4963233;28;114493;-77
2023/05/21 06:25:59;;;;;;;15.55;13.43;;;21.80;52.20;;;;;;4979509;28;114891;-78
2023/05/21 06:28:28;;;;;;;15.07;13.55;;;21.90;51.80;;;;;;4995350;28;114831;-78
2023/05/21 06:30:57;;;;;;;14.52;12.80;;;21.90;52.20;;;;;;4977759;28;114559;-78
2023/05/21 06:33:26;;;;;;;14.15;12.75;;;22.00;52.60;;;;;;4986161;28;116416;-77
2023/05/21 06:35:54;;;;;;;15.82;13.75;;;22.10;52.10;;;;;;4985496;28;115053;-78
2023/05/21 06:38:21;;;;;;;16.83;15.07;;;22.10;51.50;;;;;;4985869;28;114773;-79
2023/05/21 06:40:49;;;;;;;14.55;13.05;;;22.00;52.00;;;;;;4966662;28;115166;-78
2023/05/21 06:43:31;;;;;;;16.17;12.98;;;22.00;52.10;;;;;;4999864;28;114450;-79
2023/05/21 06:46:17;;;;;;;16.45;13.82;;;22.20;52.00;;;;;;4985017;28;115047;-79
2023/05/21 06:48:45;;;;;;;14.95;13.43;;;22.30;51.00;;;;;;5000111;28;115736;-80
2023/05/21 06:51:12;;;;;;;14.70;13.07;;;22.50;50.90;;;;;;4985253;28;114527;-78
2023/05/21 06:53:39;;;;;;;14.45;12.90;;;22.60;50.80;;;;;;5000497;28;117533;-79
2023/05/21 06:56:07;;;;;;;15.68;13.60;;;22.60;50.60;;;;;;4981069;28;115107;-78
2023/05/21 06:58:37;;;;;;;15.95;14.25;;;22.80;50.90;;;;;;4998589;28;115962;-78
2023/05/21 07:01:05;;;;;;;15.80;14.10;;;22.80;51.20;;;;;;4981906;28;114711;-82
2023/05/21 07:03:32;;;;;;;15.85;13.35;;;22.90;50.90;;;;;;5002453;28;118228;-79
2023/05/21 07:05:59;;;;;;;14.93;13.43;;;23.10;50.70;;;;;;4986814;28;116186;-78
2023/05/21 07:08:27;;;;;;;18.30;13.95;;;23.00;49.50;;;;;;4982696;28;116109;-79
2023/05/21 07:11:04;;;;;;;16.88;14.25;;;23.00;49.90;;;;;;4984502;28;117421;-79
2023/05/21 07:13:31;;;;;;;15.40;13.80;;;22.80;50.20;;;;;;5000433;28;114601;-78
2023/05/21 07:15:58;;;;;;;16.30;13.80;;;22.70;51.90;;;;;;4981732;28;115559;-78
2023/05/21 07:18:26;;;;;;;16.42;13.98;;;22.80;51.90;;;;;;4977421;28;114818;-78
2023/05/21 07:20:54;;;;;;;16.73;14.07;;;22.80;51.00;;;;;;4966218;28;114443;-78
2023/05/21 07:23:21;;;;;;;14.70;13.27;;;22.70;50.40;;;;;;5000235;28;114711;-78
2023/05/21 07:25:48;;;;;;;16.75;15.05;;;22.50;50.70;;;;;;4973863;28;114973;-78
2023/05/21 07:28:15;;;;;;;15.80;13.65;;;22.30;51.70;;;;;;4980198;28;115783;-78
2023/05/21 07:30:45;;;;;;;16.33;14.20;;;22.30;52.20;;;;;;4996623;28;116229;-78
2023/05/21 07:33:19;;;;;;;15.13;13.52;;;22.30;52.00;;;;;;4982091;28;114667;-78
2023/05/21 07:35:48;;;;;;;17.23;15.20;;;22.30;52.70;;;;;;4981009;28;114899;-77
2023/05/21 07:38:16;;;;;;;16.80;14.77;;;22.30;52.40;;;;;;4980342;28;118177;-79
2023/05/21 07:40:43;;;;;;;15.63;14.02;;;22.30;52.70;;;;;;4999103;28;114702;-79
2023/05/21 07:43:12;;;;;;;15.98;14.30;;;22.30;51.90;;;;;;4999205;28;114760;-79
2023/05/21 07:45:40;;;;;;;18.20;13.70;;;22.30;52.70;;;;;;4998035;28;115382;-78
2023/05/21 07:48:07;;;;;;;16.10;14.40;;;22.30;52.90;;;;;;4983452;28;114990;-78
2023/05/21 07:50:40;;;;;;;17.13;14.88;;;22.30;51.50;;;;;;4979750;28;114421;-77
2023/05/21 07:53:08;;;;;;;15.50;13.93;;;22.20;51.70;;;;;;4959708;28;114524;-77
2023/05/21 07:55:35;;;;;;;15.60;13.27;;;22.00;53.00;;;;;;4981617;28;117440;-78
2023/05/21 07:58:04;;;;;;;14.93;13.32;;;22.00;53.80;;;;;;4999232;28;114773;-78
2023/05/21 08:00:34;;;;;;;18.30;15.95;;;22.20;53.50;;;;;;4997131;28;114706;-78
2023/05/21 08:03:43;;;;;;;17.52;14.90;;;22.20;53.50;;;;;;4965321;28;114685;-80
2023/05/21 08:06:14;;;;;;;18.00;15.63;;;22.20;53.70;;;;;;4979222;28;115640;-78
2023/05/21 08:08:41;;;;;;;17.95;15.95;;;22.10;53.30;;;;;;4982117;28;115743;-78
2023/05/21 08:11:08;;;;;;;18.70;16.70;;;22.10;54.10;;;;;;4982208;28;114320;-78
2023/05/21 08:13:35;;;;;;;17.23;15.40;;;22.00;54.50;;;;;;4999090;28;114517;-78
2023/05/21 08:16:05;;;;;;;17.75;15.82;;;22.20;55.20;;;;;;4996133;28;114938;-78
2023/05/21 08:18:32;;;;;;;17.17;15.38;;;22.30;55.10;;;;;;4981938;28;115005;-79
2023/05/21 08:21:00;;;;;;;17.98;16.20;;;22.50;54.30;;;;;;4996310;28;114345;-79
2023/05/21 08:23:28;;;;;;;21.23;18.00;;;22.60;54.20;;;;;;4983051;28;114545;-77
2023/05/21 08:25:58;;;;;;;20.15;16.52;;;22.80;53.90;;;;;;4981908;28;114986;-79
2023/05/21 08:28:26;;;;;;;20.35;16.60;;;22.80;53.60;;;;;;4999324;28;114704;-78
2023/05/21 08:30:55;;;;;;;19.75;17.33;;;22.90;53.60;;;;;;4999872;28;116485;-77
2023/05/21 08:33:23;;;;;;;20.58;18.25;;;23.00;53.20;;;;;;4983803;28;114605;-78
2023/05/21 08:35:52;;;;;;;18.00;16.20;;;23.10;53.60;;;;;;4978585;28;114851;-79
2023/05/21 08:38:27;;;;;;;17.90;15.25;;;23.20;51.80;;;;;;4979925;28;115782;-78
2023/05/21 08:41:13;;;;;;;15.88;14.30;;;23.10;52.70;;;;;;4999099;28;114353;-77
2023/05/21 08:43:46;;;;;;;15.60;14.00;;;23.20;52.00;;;;;;4967663;28;114638;-78
2023/05/21 08:49:16;;;;;;;18.23;14.57;;;23.10;50.70;;;;;;4968630;28;116272;-78
2023/05/21 08:51:45;;;;;;;16.30;14.70;;;22.80;51.50;;;;;;4981784;28;114386;-77
2023/05/21 08:54:43;;;;;;;17.40;14.95;;;22.80;51.10;;;;;;4965865;28;114748;-78
2023/05/21 08:57:16;;;;;;;16.73;14.95;;;22.80;51.60;;;;;;4958862;28;114950;-77
2023/05/21 08:59:50;;;;;;;17.35;15.27;;;22.80;51.70;;;;;;4979771;28;114605;-77
2023/05/21 09:02:29;;;;;;;18.65;14.73;;;22.80;51.90;;;;;;4965451;28;114573;-78
2023/05/21 09:04:57;;;;;;;18.35;14.07;;;22.80;52.20;;;;;;4961806;28;114463;-77
2023/05/21 09:07:29;;;;;;;18.00;15.60;;;22.80;52.40;;;;;;4948376;28;115548;-79
2023/05/21 09:10:35;;;;;;;;;;;22.90;52.20;;;;;;4954785;28;115069;-78
2023/05/21 09:13:06;;;;;;;17.63;15.05;;;22.90;52.80;;;;;;4962398;28;114585;-78
2023/05/21 09:15:34;;;;;;;17.42;15.25;;;22.90;53.10;;;;;;4965844;28;115021;-79
2023/05/21 09:18:01;;;;;;;16.00;14.35;;;23.10;52.20;;;;;;4962572;28;115519;-78
2023/05/21 09:20:49;;;;;;;17.52;15.80;;;23.10;52.20;;;;;;4975914;28;114968;-77
2023/05/21 09:23:17;;;;;;;15.80;13.73;;;22.80;52.30;;;;;;4981808;28;114613;-77
2023/05/21 09:25:46;;;;;;;18.00;13.75;;;22.70;52.50;;;;;;4965180;28;114956;-77
2023/05/21 09:28:20;;;;;;;14.85;13.32;;;22.70;52.70;;;;;;4980896;28;118683;-77
2023/05/21 09:30:48;;;;;;;17.60;14.82;;;22.80;52.30;;;;;;4964414;28;114707;-77
2023/05/21 09:33:25;;;;;;;15.10;13.18;;;22.80;52.00;;;;;;4965158;28;114323;-77
2023/05/21 09:35:52;;;;;;;17.27;13.75;;;22.80;52.80;;;;;;4974877;28;114702;-77
2023/05/21 09:38:24;;;;;;;16.08;13.07;;;22.80;52.30;;;;;;4997811;28;116206;-77
2023/05/21 09:40:56;;;;;;;13.85;12.45;;;22.80;52.10;;;;;;4982805;28;114587;-77
2023/05/21 09:43:25;;;;;;;16.38;13.10;;;22.80;52.10;;;;;;4981648;28;114722;-77
2023/05/21 09:45:54;;;;;;;15.80;13.50;;;22.90;52.20;;;;;;4981590;28;114535;-77
2023/05/21 09:48:39;;;;;;;14.30;12.77;;;22.90;52.10;;;;;;4981133;28;114922;-77
2023/05/21 09:51:10;;;;;;;;;;;22.80;52.70;;;;;;4981667;28;114709;-77
2023/05/21 09:53:50;;;;;;;14.93;13.43;;;22.60;53.40;;;;;;4983394;28;115173;-77
2023/05/21 09:56:22;;;;;;;15.13;12.75;;;22.70;53.10;;;;;;4983662;28;114487;-77
2023/05/21 09:58:53;;;;;;;14.20;11.73;;;22.70;52.50;;;;;;4997709;28;116862;-78
2023/05/21 10:01:21;;;;;;;14.93;13.18;;;22.70;52.90;;;;;;4982798;28;116145;-78
2023/05/21 10:03:55;;;;;;;14.15;12.63;;;22.80;52.70;;;;;;4998169;28;116723;-78
2023/05/21 10:06:25;;;;;;;14.77;13.18;;;22.80;52.10;;;;;;4985334;28;114496;-77
2023/05/21 10:08:55;;;;;;;14.77;13.18;;;22.60;52.30;;;;;;4985416;28;116788;-78
2023/05/21 10:11:25;;;;;;;15.63;12.43;;;22.50;53.10;;;;;;4983175;28;114734;-77
2023/05/21 10:14:06;;;;;;;17.60;12.38;;;22.60;53.80;;;;;;4968340;28;114504;-78
2023/05/21 10:16:34;;;;;;;14.25;12.82;;;22.70;52.60;;;;;;4986848;28;114456;-77
2023/05/21 10:19:04;;;;;;;13.80;12.40;;;22.60;52.50;;;;;;5000786;28;115036;-77
2023/05/21 10:21:32;;;;;;;15.90;12.00;;;22.70;52.60;;;;;;4983879;28;116124;-77
2023/05/21 10:24:03;;;;;;;15.00;11.65;;;22.80;52.60;;;;;;4986530;28;114566;-77
2023/05/21 10:26:30;;;;;;;13.35;11.13;;;22.80;52.20;;;;;;4986701;28;114487;-78
2023/05/21 10:28:59;;;;;;;12.77;10.73;;;22.80;52.00;;;;;;4984351;28;115141;-77
2023/05/21 10:31:27;;;;;;;12.85;11.25;;;22.90;52.00;;;;;;4983625;28;114720;-77
2023/05/21 10:33:54;;;;;;;12.57;10.60;;;22.90;51.50;;;;;;4985973;28;114515;-78
2023/05/21 10:36:23;;;;;;;11.57;10.23;;;22.90;51.60;;;;;;4986037;28;114617;-77
2023/05/21 10:38:50;;;;;;;11.57;10.35;;;23.00;51.00;;;;;;4985745;28;115559;-78
2023/05/21 10:41:18;;;;;;;12.20;10.63;;;23.00;50.50;;;;;;4985589;28;114670;-79
2023/05/21 10:43:50;;;;;;;10.82;9.55;;;23.00;50.60;;;;;;4985378;28;115988;-78
2023/05/21 10:46:20;;;;;;;11.27;9.50;;;23.10;50.40;;;;;;5001708;28;114606;-78
2023/05/21 10:49:12;;;;;;;11.13;9.63;;;23.10;50.10;;;;;;4985282;28;115570;-78
2023/05/21 10:51:51;;;;;;;12.98;9.40;;;23.10;50.30;;;;;;4986403;28;115271;-77
2023/05/21 10:54:48;;;;;;;11.90;9.65;;;23.20;50.00;;;;;;4984205;28;114645;-78
2023/05/21 10:57:52;;;;;;;12.30;9.20;;;23.10;50.30;;;;;;4986097;28;114610;-77
2023/05/21 11:00:20;;;;;;;10.27;9.23;;;23.10;49.90;;;;;;4985160;28;115099;-78
2023/05/21 11:02:47;;;;;;;13.40;10.05;;;23.00;50.40;;;;;;4967434;28;116682;-78
2023/05/21 11:05:55;;;;;;;9.27;8.38;;;22.90;50.10;;;;;;4966053;28;114523;-78
2023/05/21 11:08:30;;;;;;;11.18;8.57;;;23.00;50.20;;;;;;4985885;28;114409;-78
2023/05/21 11:10:58;;;;;;;9.25;7.72;;;23.00;50.50;;;;;;4984971;28;115357;-79
2023/05/21 11:13:26;;;;;;;10.40;8.63;;;23.20;49.90;;;;;;4985701;28;114806;-79
2023/05/21 11:16:04;;;;;;;11.68;9.02;;;23.20;49.60;;;;;;4986158;28;114566;-78
2023/05/21 11:18:38;;;;;;;11.63;9.15;;;23.30;49.80;;;;;;4984315;28;114460;-78
2023/05/21 11:21:07;;;;;;;9.45;8.43;;;23.20;49.10;;;;;;4984698;28;115588;-78
2023/05/21 11:23:55;;;;;;;8.98;7.95;;;22.90;49.60;;;;;;4999444;28;114703;-78
2023/05/21 11:26:25;;;;;;;10.65;8.20;;;22.70;50.20;;;;;;4985138;28;114230;-78
2023/05/21 11:29:09;;;;;;;10.60;8.30;;;22.60;50.80;;;;;;5000879;28;114635;-79
2023/05/21 11:31:39;;;;;;;8.77;7.70;;;22.70;50.40;;;;;;4999551;28;115051;-77
2023/05/21 11:34:10;;;;;;;11.25;8.30;;;22.70;50.20;;;;;;4985059;28;114715;-77
2023/05/21 11:36:41;;;;;;;10.98;8.32;;;22.80;50.00;;;;;;4985821;28;114997;-77
2023/05/21 11:39:21;;;;;;;10.40;7.43;;;22.80;50.00;;;;;;5001013;28;114492;-77
2023/05/21 11:42:06;;;;;;;10.52;7.80;;;23.00;49.70;;;;;;4984806;28;115496;-78
2023/05/21 11:44:43;;;;;;;7.72;6.50;;;23.00;49.20;;;;;;4985269;28;114660;-78
2023/05/21 11:47:11;;;;;;;11.88;6.57;;;23.10;48.70;;;;;;4985877;28;114354;-78
2023/05/21 11:49:38;;;;;;;11.90;6.72;;;23.10;48.80;;;;;;4984617;28;114280;-78
2023/05/21 11:52:06;;;;;;;9.43;6.75;;;23.10;48.70;;;;;;4984309;28;115092;-79
2023/05/21 11:54:41;;;;;;;8.75;5.93;;;23.30;48.30;;;;;;4984791;28;114899;-76
2023/05/21 11:57:09;;;;;;;6.90;6.20;;;23.30;48.20;;;;;;4985476;28;114900;-78
2023/05/21 11:59:36;;;;;;;8.70;6.10;;;23.30;48.00;;;;;;4983993;28;114629;-78
2023/05/21 12:02:04;;;;;;;9.23;5.93;;;23.30;48.10;;;;;;4984480;28;117120;-77
2023/05/21 12:04:31;;;;;;;9.20;6.82;;;23.30;48.20;;;;;;4984415;28;115218;-77
2023/05/21 12:07:01;;;;;;;10.57;6.00;;;23.20;47.60;;;;;;4985241;28;114290;-78
2023/05/21 12:09:28;;;;;;;7.57;6.30;;;23.20;47.50;;;;;;5001469;28;114550;-78
2023/05/21 12:11:57;;;;;;;9.82;5.68;;;23.10;48.10;;;;;;4984541;28;115005;-78
2023/05/21 12:14:24;;;;;;;8.30;6.18;;;23.10;48.40;;;;;;4964230;28;116809;-78
2023/05/21 12:16:52;;;;;;;10.05;6.25;;;23.10;49.00;;;;;;5000033;28;114286;-78
2023/05/21 12:19:19;;;;;;;9.70;5.95;;;23.00;48.70;;;;;;4984293;28;114449;-78
2023/05/21 12:21:46;;;;;;;11.07;6.25;;;22.80;48.60;;;;;;4966316;28;118834;-78
2023/05/21 12:24:15;;;;;;;7.70;5.65;;;22.70;48.60;;;;;;4966259;28;117956;-78
2023/05/21 12:26:44;;;;;;;9.20;6.38;;;22.60;48.70;;;;;;5000064;28;114702;-77
2023/05/21 12:29:11;;;;;;;9.20;6.20;;;22.50;49.30;;;;;;4998707;28;118881;-78
2023/05/21 12:31:48;;;;;;;7.40;5.32;;;22.50;49.30;;;;;;4982240;28;116602;-78
2023/05/21 12:34:35;;;;;;;7.88;5.82;;;22.40;49.50;;;;;;4984180;28;117699;-78
2023/05/21 12:37:05;;;;;;;7.72;5.50;;;22.30;49.40;;;;;;4984514;28;114610;-79
2023/05/21 12:39:42;;;;;;;8.50;5.85;;;22.30;49.20;;;;;;4984433;28;114518;-79